sensor_id;sensor_type;location;lat;lon;timestamp;P1;durP1;ratioP1;P2;durP2;ratioP2
43857;SDS011;29507;51.284;5.758;2023-06-22T00:00:58;6.70;;;4.07;;
43857;SDS011;29507;51.284;5.758;2023-06-22T00:03:25;8.55;;;4.63;;
43857;SDS011;29507;51.284;5.758;2023-06-22T00:05:50;6.57;;;4.22;;
43857;SDS011;29507;51.284;5.758;2023-06-22T00:08:17;9.13;;;4.55;;
43857;SDS011;29507;51.284;5.758;2023-06-22T00:10:43;8.35;;;5.30;;
43857;SDS011;29507;51.284;5.758;2023-06-22T00:13:09;8.80;;;4.65;;
43857;SDS011;29507;51.284;5.758;2023-06-22T00:15:37;7.80;;;5.20;;
43857;SDS011;29507;51.284;5.758;2023-06-22T00:18:04;7.40;;;4.85;;
43857;SDS011;29507;51.284;5.758;2023-06-22T00:20:31;10.63;;;5.82;;
43857;SDS011;29507;51.284;5.758;2023-06-22T00:22:58;8.15;;;4.57;;
43857;SDS011;29507;51.284;5.758;2023-06-22T00:25:24;8.88;;;5.03;;
43857;SDS011;29507;51.284;5.758;2023-06-22T00:27:50;7.15;;;5.15;;
43857;SDS011;29507;51.284;5.758;2023-06-22T00:30:16;9.57;;;5.68;;
43857;SDS011;29507;51.284;5.758;2023-06-22T00:32:43;8.68;;;5.57;;
43857;SDS011;29507;51.284;5.758;2023-06-22T00:35:09;10.95;;;5.18;;
43857;SDS011;29507;51.284;5.758;2023-06-22T00:37:36;8.80;;;5.97;;
43857;SDS011;29507;51.284;5.758;2023-06-22T00:40:02;11.05;;;5.90;;
43857;SDS011;29507;51.284;5.758;2023-06-22T00:42:29;10.68;;;5.97;;
43857;SDS011;29507;51.284;5.758;2023-06-22T00:44:55;9.32;;;5.57;;
43857;SDS011;29507;51.284;5.758;2023-06-22T00:47:21;8.95;;;5.38;;
43857;SDS011;29507;51.284;5.758;2023-06-22T00:49:47;12.00;;;6.15;;
43857;SDS011;29507;51.284;5.758;2023-06-22T00:54:47;8.95;;;6.07;;
43857;SDS011;29507;51.284;5.758;2023-06-22T00:57:13;10.15;;;5.95;;
43857;SDS011;29507;51.284;5.758;2023-06-22T01:02:09;11.93;;;6.63;;
43857;SDS011;29507;51.284;5.758;2023-06-22T01:04:36;10.27;;;6.93;;
43857;SDS011;29507;51.284;5.758;2023-06-22T01:09:39;12.85;;;7.18;;
43857;SDS011;29507;51.284;5.758;2023-06-22T01:12:14;11.05;;;7.13;;
43857;SDS011;29507;51.284;5.758;2023-06-22T01:14:42;11.68;;;7.55;;
43857;SDS011;29507;51.284;5.758;2023-06-22T01:17:12;13.35;;;7.30;;
43857;SDS011;29507;51.284;5.758;2023-06-22T01:19:45;10.98;;;6.78;;
43857;SDS011;29507;51.284;5.758;2023-06-22T01:22:15;16.45;;;7.60;;
43857;SDS011;29507;51.284;5.758;2023-06-22T01:24:55;9.23;;;6.78;;
43857;SDS011;29507;51.284;5.758;2023-06-22T01:27:33;10.25;;;7.03;;
43857;SDS011;29507;51.284;5.758;2023-06-22T01:30:10;11.45;;;6.97;;
43857;SDS011;29507;51.284;5.758;2023-06-22T01:32:38;12.27;;;7.47;;
43857;SDS011;29507;51.284;5.758;2023-06-22T01:35:06;13.13;;;7.85;;
43857;SDS011;29507;51.284;5.758;2023-06-22T01:37:34;13.32;;;9.02;;
43857;SDS011;29507;51.284;5.758;2023-06-22T01:40:01;14.05;;;8.63;;
43857;SDS011;29507;51.284;5.758;2023-06-22T01:44:56;13.88;;;8.13;;
43857;SDS011;29507;51.284;5.758;2023-06-22T01:47:23;16.00;;;8.30;;
43857;SDS011;29507;51.284;5.758;2023-06-22T01:49:50;14.38;;;9.10;;
43857;SDS011;29507;51.284;5.758;2023-06-22T01:52:17;11.77;;;8.25;;
43857;SDS011;29507;51.284;5.758;2023-06-22T01:54:42;12.38;;;8.25;;
43857;SDS011;29507;51.284;5.758;2023-06-22T01:57:08;17.73;;;9.52;;
43857;SDS011;29507;51.284;5.758;2023-06-22T01:59:37;13.77;;;8.80;;
43857;SDS011;29507;51.284;5.758;2023-06-22T02:02:12;16.27;;;9.68;;
43857;SDS011;29507;51.284;5.758;2023-06-22T02:07:12;14.75;;;9.48;;
43857;SDS011;29507;51.284;5.758;2023-06-22T02:09:42;13.02;;;9.25;;
43857;SDS011;29507;51.284;5.758;2023-06-22T02:12:11;17.27;;;9.77;;
43857;SDS011;29507;51.284;5.758;2023-06-22T02:14:38;14.55;;;9.52;;
43857;SDS011;29507;51.284;5.758;2023-06-22T02:17:05;19.63;;;10.52;;
43857;SDS011;29507;51.284;5.758;2023-06-22T02:19:37;16.10;;;10.13;;
43857;SDS011;29507;51.284;5.758;2023-06-22T02:22:04;18.30;;;10.50;;
43857;SDS011;29507;51.284;5.758;2023-06-22T02:24:29;15.27;;;10.23;;
43857;SDS011;29507;51.284;5.758;2023-06-22T02:27:00;15.88;;;10.00;;
43857;SDS011;29507;51.284;5.758;2023-06-22T02:29:27;17.17;;;10.25;;
43857;SDS011;29507;51.284;5.758;2023-06-22T02:31:53;15.57;;;10.13;;
43857;SDS011;29507;51.284;5.758;2023-06-22T02:34:19;16.55;;;9.70;;
43857;SDS011;29507;51.284;5.758;2023-06-22T02:36:45;15.38;;;10.05;;
43857;SDS011;29507;51.284;5.758;2023-06-22T02:39:18;17.67;;;10.15;;
43857;SDS011;29507;51.284;5.758;2023-06-22T02:41:51;15.65;;;11.43;;
43857;SDS011;29507;51.284;5.758;2023-06-22T02:44:18;17.88;;;11.25;;
43857;SDS011;29507;51.284;5.758;2023-06-22T02:46:45;18.92;;;10.25;;
43857;SDS011;29507;51.284;5.758;2023-06-22T02:49:11;15.93;;;11.13;;
43857;SDS011;29507;51.284;5.758;2023-06-22T02:51:46;14.68;;;10.18;;
43857;SDS011;29507;51.284;5.758;2023-06-22T02:54:12;18.95;;;11.00;;
43857;SDS011;29507;51.284;5.758;2023-06-22T02:56:38;18.40;;;11.70;;
43857;SDS011;29507;51.284;5.758;2023-06-22T02:59:05;17.02;;;11.15;;
43857;SDS011;29507;51.284;5.758;2023-06-22T03:01:31;17.25;;;11.25;;
43857;SDS011;29507;51.284;5.758;2023-06-22T03:04:02;15.35;;;10.75;;
43857;SDS011;29507;51.284;5.758;2023-06-22T03:06:29;16.50;;;10.80;;
43857;SDS011;29507;51.284;5.758;2023-06-22T03:09:01;21.45;;;11.32;;
43857;SDS011;29507;51.284;5.758;2023-06-22T03:11:30;18.73;;;12.18;;
43857;SDS011;29507;51.284;5.758;2023-06-22T03:13:56;18.20;;;11.52;;
43857;SDS011;29507;51.284;5.758;2023-06-22T03:16:22;21.08;;;11.88;;
43857;SDS011;29507;51.284;5.758;2023-06-22T03:18:48;16.60;;;10.27;;
43857;SDS011;29507;51.284;5.758;2023-06-22T03:21:13;16.80;;;11.98;;
43857;SDS011;29507;51.284;5.758;2023-06-22T03:23:40;24.30;;;12.02;;
43857;SDS011;29507;51.284;5.758;2023-06-22T03:26:08;18.48;;;11.95;;
43857;SDS011;29507;51.284;5.758;2023-06-22T03:28:34;17.70;;;11.20;;
43857;SDS011;29507;51.284;5.758;2023-06-22T03:31:00;23.33;;;12.45;;
43857;SDS011;29507;51.284;5.758;2023-06-22T03:33:26;21.23;;;12.35;;
43857;SDS011;29507;51.284;5.758;2023-06-22T03:35:51;17.13;;;12.10;;
43857;SDS011;29507;51.284;5.758;2023-06-22T03:38:17;22.02;;;12.13;;
43857;SDS011;29507;51.284;5.758;2023-06-22T03:40:43;23.92;;;12.85;;
43857;SDS011;29507;51.284;5.758;2023-06-22T03:43:08;18.52;;;12.70;;
43857;SDS011;29507;51.284;5.758;2023-06-22T03:45:34;21.60;;;12.07;;
43857;SDS011;29507;51.284;5.758;2023-06-22T03:48:00;22.50;;;12.88;;
43857;SDS011;29507;51.284;5.758;2023-06-22T03:50:26;18.67;;;12.25;;
43857;SDS011;29507;51.284;5.758;2023-06-22T03:52:52;19.67;;;12.82;;
43857;SDS011;29507;51.284;5.758;2023-06-22T03:55:19;19.92;;;12.30;;
43857;SDS011;29507;51.284;5.758;2023-06-22T03:57:45;17.88;;;11.90;;
43857;SDS011;29507;51.284;5.758;2023-06-22T04:00:11;22.80;;;13.25;;
43857;SDS011;29507;51.284;5.758;2023-06-22T04:02:38;18.52;;;12.73;;
43857;SDS011;29507;51.284;5.758;2023-06-22T04:05:03;19.48;;;13.60;;
43857;SDS011;29507;51.284;5.758;2023-06-22T04:07:30;23.33;;;12.68;;
43857;SDS011;29507;51.284;5.758;2023-06-22T04:09:55;18.33;;;12.23;;
43857;SDS011;29507;51.284;5.758;2023-06-22T04:12:21;22.75;;;12.43;;
43857;SDS011;29507;51.284;5.758;2023-06-22T04:14:47;21.27;;;12.63;;
43857;SDS011;29507;51.284;5.758;2023-06-22T04:17:12;20.20;;;14.02;;
43857;SDS011;29507;51.284;5.758;2023-06-22T04:19:39;17.98;;;12.10;;
43857;SDS011;29507;51.284;5.758;2023-06-22T04:22:05;18.25;;;12.40;;
43857;SDS011;29507;51.284;5.758;2023-06-22T04:24:32;19.60;;;12.45;;
43857;SDS011;29507;51.284;5.758;2023-06-22T04:26:58;21.17;;;12.65;;
43857;SDS011;29507;51.284;5.758;2023-06-22T04:29:27;17.48;;;12.57;;
43857;SDS011;29507;51.284;5.758;2023-06-22T04:31:55;21.05;;;13.23;;
43857;SDS011;29507;51.284;5.758;2023-06-22T04:34:23;21.02;;;12.40;;
43857;SDS011;29507;51.284;5.758;2023-06-22T04:36:51;17.80;;;11.70;;
43857;SDS011;29507;51.284;5.758;2023-06-22T04:39:17;18.05;;;12.52;;
43857;SDS011;29507;51.284;5.758;2023-06-22T04:41:44;20.73;;;12.75;;
43857;SDS011;29507;51.284;5.758;2023-06-22T04:44:10;19.73;;;12.48;;
43857;SDS011;29507;51.284;5.758;2023-06-22T04:46:48;18.87;;;12.13;;
43857;SDS011;29507;51.284;5.758;2023-06-22T04:49:33;18.83;;;11.27;;
43857;SDS011;29507;51.284;5.758;2023-06-22T04:52:11;20.13;;;12.95;;
43857;SDS011;29507;51.284;5.758;2023-06-22T04:54:38;18.88;;;12.43;;
43857;SDS011;29507;51.284;5.758;2023-06-22T04:57:13;17.92;;;12.40;;
43857;SDS011;29507;51.284;5.758;2023-06-22T04:59:40;17.13;;;11.38;;
43857;SDS011;29507;51.284;5.758;2023-06-22T05:02:06;20.13;;;13.48;;
43857;SDS011;29507;51.284;5.758;2023-06-22T05:04:33;18.13;;;12.95;;
43857;SDS011;29507;51.284;5.758;2023-06-22T05:07:00;20.15;;;11.73;;
43857;SDS011;29507;51.284;5.758;2023-06-22T05:09:26;20.35;;;12.60;;
43857;SDS011;29507;51.284;5.758;2023-06-22T05:11:52;17.50;;;11.82;;
43857;SDS011;29507;51.284;5.758;2023-06-22T05:14:18;21.58;;;12.55;;
43857;SDS011;29507;51.284;5.758;2023-06-22T05:16:44;18.50;;;12.43;;
43857;SDS011;29507;51.284;5.758;2023-06-22T05:19:10;18.25;;;13.15;;
43857;SDS011;29507;51.284;5.758;2023-06-22T05:21:37;19.17;;;13.10;;
43857;SDS011;29507;51.284;5.758;2023-06-22T05:24:03;19.52;;;12.88;;
43857;SDS011;29507;51.284;5.758;2023-06-22T05:26:31;17.90;;;12.60;;
43857;SDS011;29507;51.284;5.758;2023-06-22T05:29:02;18.17;;;13.32;;
43857;SDS011;29507;51.284;5.758;2023-06-22T05:31:28;16.15;;;12.95;;
43857;SDS011;29507;51.284;5.758;2023-06-22T05:33:54;17.63;;;12.73;;
43857;SDS011;29507;51.284;5.758;2023-06-22T05:36:20;20.00;;;12.57;;
43857;SDS011;29507;51.284;5.758;2023-06-22T05:38:49;18.75;;;11.98;;
43857;SDS011;29507;51.284;5.758;2023-06-22T05:41:15;21.23;;;13.50;;
43857;SDS011;29507;51.284;5.758;2023-06-22T05:43:41;21.50;;;13.60;;
43857;SDS011;29507;51.284;5.758;2023-06-22T05:46:07;17.85;;;12.60;;
43857;SDS011;29507;51.284;5.758;2023-06-22T05:48:34;21.48;;;12.93;;
43857;SDS011;29507;51.284;5.758;2023-06-22T05:51:00;19.58;;;12.55;;
43857;SDS011;29507;51.284;5.758;2023-06-22T05:53:26;19.55;;;12.13;;
43857;SDS011;29507;51.284;5.758;2023-06-22T05:55:52;18.52;;;12.35;;
43857;SDS011;29507;51.284;5.758;2023-06-22T05:58:18;22.58;;;13.30;;
43857;SDS011;29507;51.284;5.758;2023-06-22T06:00:43;21.98;;;12.45;;
43857;SDS011;29507;51.284;5.758;2023-06-22T06:03:09;18.23;;;12.82;;
43857;SDS011;29507;51.284;5.758;2023-06-22T06:05:36;15.18;;;11.73;;
43857;SDS011;29507;51.284;5.758;2023-06-22T06:08:03;18.30;;;11.63;;
43857;SDS011;29507;51.284;5.758;2023-06-22T06:10:30;19.77;;;12.13;;
43857;SDS011;29507;51.284;5.758;2023-06-22T06:12:57;19.13;;;13.15;;
43857;SDS011;29507;51.284;5.758;2023-06-22T06:15:22;20.25;;;13.02;;
43857;SDS011;29507;51.284;5.758;2023-06-22T06:17:49;19.50;;;14.18;;
43857;SDS011;29507;51.284;5.758;2023-06-22T06:20:17;21.65;;;13.98;;
43857;SDS011;29507;51.284;5.758;2023-06-22T06:22:44;22.35;;;14.15;;
43857;SDS011;29507;51.284;5.758;2023-06-22T06:25:09;20.08;;;13.63;;
43857;SDS011;29507;51.284;5.758;2023-06-22T06:27:44;23.23;;;13.85;;
43857;SDS011;29507;51.284;5.758;2023-06-22T06:30:11;19.80;;;13.15;;
43857;SDS011;29507;51.284;5.758;2023-06-22T06:32:37;21.45;;;14.63;;
43857;SDS011;29507;51.284;5.758;2023-06-22T06:35:07;22.83;;;14.18;;
43857;SDS011;29507;51.284;5.758;2023-06-22T06:37:41;22.35;;;14.60;;
43857;SDS011;29507;51.284;5.758;2023-06-22T06:40:08;19.90;;;14.55;;
43857;SDS011;29507;51.284;5.758;2023-06-22T06:42:54;24.35;;;14.25;;
43857;SDS011;29507;51.284;5.758;2023-06-22T06:45:20;20.70;;;14.48;;
43857;SDS011;29507;51.284;5.758;2023-06-22T06:47:50;21.88;;;14.10;;
43857;SDS011;29507;51.284;5.758;2023-06-22T06:50:17;21.75;;;14.90;;
43857;SDS011;29507;51.284;5.758;2023-06-22T06:52:43;20.75;;;13.60;;
43857;SDS011;29507;51.284;5.758;2023-06-22T06:55:09;21.45;;;14.98;;
43857;SDS011;29507;51.284;5.758;2023-06-22T06:57:37;19.90;;;13.75;;
43857;SDS011;29507;51.284;5.758;2023-06-22T07:00:03;18.80;;;13.68;;
43857;SDS011;29507;51.284;5.758;2023-06-22T07:02:39;18.85;;;14.40;;
43857;SDS011;29507;51.284;5.758;2023-06-22T07:05:06;22.63;;;14.43;;
43857;SDS011;29507;51.284;5.758;2023-06-22T07:07:32;23.92;;;15.07;;
43857;SDS011;29507;51.284;5.758;2023-06-22T07:09:58;21.60;;;13.23;;
43857;SDS011;29507;51.284;5.758;2023-06-22T07:12:23;16.13;;;11.65;;
43857;SDS011;29507;51.284;5.758;2023-06-22T07:14:49;18.20;;;12.40;;
43857;SDS011;29507;51.284;5.758;2023-06-22T07:17:16;19.67;;;12.10;;
43857;SDS011;29507;51.284;5.758;2023-06-22T07:19:41;20.88;;;14.75;;
43857;SDS011;29507;51.284;5.758;2023-06-22T07:22:07;19.20;;;14.18;;
43857;SDS011;29507;51.284;5.758;2023-06-22T07:24:33;20.58;;;14.40;;
43857;SDS011;29507;51.284;5.758;2023-06-22T07:26:58;25.15;;;15.23;;
43857;SDS011;29507;51.284;5.758;2023-06-22T07:29:24;20.42;;;14.35;;
43857;SDS011;29507;51.284;5.758;2023-06-22T07:31:51;22.05;;;15.60;;
43857;SDS011;29507;51.284;5.758;2023-06-22T07:34:17;22.52;;;15.10;;
43857;SDS011;29507;51.284;5.758;2023-06-22T07:36:44;22.38;;;15.40;;
43857;SDS011;29507;51.284;5.758;2023-06-22T07:39:10;22.35;;;15.80;;
43857;SDS011;29507;51.284;5.758;2023-06-22T07:41:37;21.65;;;15.80;;
43857;SDS011;29507;51.284;5.758;2023-06-22T07:44:04;24.95;;;15.80;;
43857;SDS011;29507;51.284;5.758;2023-06-22T07:46:30;24.38;;;15.52;;
43857;SDS011;29507;51.284;5.758;2023-06-22T07:48:56;23.08;;;15.60;;
43857;SDS011;29507;51.284;5.758;2023-06-22T07:51:22;22.52;;;15.82;;
43857;SDS011;29507;51.284;5.758;2023-06-22T07:53:48;22.15;;;16.17;;
43857;SDS011;29507;51.284;5.758;2023-06-22T07:56:14;19.95;;;15.05;;
43857;SDS011;29507;51.284;5.758;2023-06-22T07:58:44;25.02;;;15.10;;
43857;SDS011;29507;51.284;5.758;2023-06-22T08:01:10;23.90;;;15.65;;
43857;SDS011;29507;51.284;5.758;2023-06-22T08:03:36;20.92;;;15.77;;
43857;SDS011;29507;51.284;5.758;2023-06-22T08:06:02;26.40;;;16.05;;
43857;SDS011;29507;51.284;5.758;2023-06-22T08:08:31;23.15;;;15.93;;
43857;SDS011;29507;51.284;5.758;2023-06-22T08:10:56;21.80;;;15.40;;
43857;SDS011;29507;51.284;5.758;2023-06-22T08:13:22;24.20;;;16.05;;
43857;SDS011;29507;51.284;5.758;2023-06-22T08:15:48;23.73;;;15.80;;
43857;SDS011;29507;51.284;5.758;2023-06-22T08:18:14;20.98;;;14.13;;
43857;SDS011;29507;51.284;5.758;2023-06-22T08:20:40;21.55;;;14.68;;
43857;SDS011;29507;51.284;5.758;2023-06-22T08:23:05;20.08;;;14.23;;
43857;SDS011;29507;51.284;5.758;2023-06-22T08:25:34;21.55;;;14.13;;
43857;SDS011;29507;51.284;5.758;2023-06-22T08:30:26;23.85;;;13.27;;
43857;SDS011;29507;51.284;5.758;2023-06-22T08:32:52;18.40;;;13.82;;
43857;SDS011;29507;51.284;5.758;2023-06-22T08:35:19;20.08;;;14.18;;
43857;SDS011;29507;51.284;5.758;2023-06-22T08:37:45;20.77;;;14.27;;
43857;SDS011;29507;51.284;5.758;2023-06-22T08:40:15;19.30;;;13.25;;
43857;SDS011;29507;51.284;5.758;2023-06-22T08:42:41;29.73;;;13.65;;
43857;SDS011;29507;51.284;5.758;2023-06-22T08:45:06;19.10;;;13.27;;
43857;SDS011;29507;51.284;5.758;2023-06-22T08:47:33;22.17;;;13.30;;
43857;SDS011;29507;51.284;5.758;2023-06-22T08:49:58;18.88;;;11.93;;
43857;SDS011;29507;51.284;5.758;2023-06-22T08:52:26;19.27;;;12.67;;
43857;SDS011;29507;51.284;5.758;2023-06-22T08:54:52;14.38;;;11.23;;
43857;SDS011;29507;51.284;5.758;2023-06-22T08:57:18;15.65;;;11.95;;
43857;SDS011;29507;51.284;5.758;2023-06-22T08:59:43;16.60;;;11.27;;
43857;SDS011;29507;51.284;5.758;2023-06-22T09:02:09;16.45;;;10.73;;
43857;SDS011;29507;51.284;5.758;2023-06-22T09:04:35;14.15;;;10.68;;
43857;SDS011;29507;51.284;5.758;2023-06-22T09:07:01;15.32;;;10.20;;
43857;SDS011;29507;51.284;5.758;2023-06-22T09:09:27;13.63;;;10.18;;
43857;SDS011;29507;51.284;5.758;2023-06-22T09:11:53;13.52;;;9.40;;
43857;SDS011;29507;51.284;5.758;2023-06-22T09:14:18;13.77;;;10.50;;
43857;SDS011;29507;51.284;5.758;2023-06-22T09:16:44;15.20;;;10.10;;
43857;SDS011;29507;51.284;5.758;2023-06-22T09:19:10;15.85;;;10.57;;
43857;SDS011;29507;51.284;5.758;2023-06-22T09:21:35;13.57;;;9.90;;
43857;SDS011;29507;51.284;5.758;2023-06-22T09:24:01;15.27;;;10.55;;
43857;SDS011;29507;51.284;5.758;2023-06-22T09:26:27;14.65;;;10.15;;
43857;SDS011;29507;51.284;5.758;2023-06-22T09:28:53;14.63;;;10.07;;
43857;SDS011;29507;51.284;5.758;2023-06-22T09:31:19;15.75;;;10.75;;
43857;SDS011;29507;51.284;5.758;2023-06-22T09:33:50;15.95;;;10.07;;
43857;SDS011;29507;51.284;5.758;2023-06-22T09:36:17;19.40;;;10.60;;
43857;SDS011;29507;51.284;5.758;2023-06-22T09:38:43;15.30;;;11.02;;
43857;SDS011;29507;51.284;5.758;2023-06-22T09:41:09;14.70;;;10.02;;
43857;SDS011;29507;51.284;5.758;2023-06-22T09:43:34;17.25;;;11.13;;
43857;SDS011;29507;51.284;5.758;2023-06-22T09:46:01;24.25;;;11.50;;
43857;SDS011;29507;51.284;5.758;2023-06-22T09:48:27;15.23;;;10.98;;
43857;SDS011;29507;51.284;5.758;2023-06-22T09:50:54;16.67;;;11.23;;
43857;SDS011;29507;51.284;5.758;2023-06-22T09:53:20;16.55;;;10.98;;
43857;SDS011;29507;51.284;5.758;2023-06-22T09:55:45;15.00;;;11.25;;
43857;SDS011;29507;51.284;5.758;2023-06-22T09:58:11;17.42;;;11.50;;
43857;SDS011;29507;51.284;5.758;2023-06-22T10:00:37;17.30;;;12.45;;
43857;SDS011;29507;51.284;5.758;2023-06-22T10:03:02;15.95;;;12.45;;
43857;SDS011;29507;51.284;5.758;2023-06-22T10:05:28;16.85;;;12.68;;
43857;SDS011;29507;51.284;5.758;2023-06-22T10:07:54;18.45;;;12.07;;
43857;SDS011;29507;51.284;5.758;2023-06-22T10:10:19;18.90;;;12.68;;
43857;SDS011;29507;51.284;5.758;2023-06-22T10:12:46;16.58;;;12.73;;
43857;SDS011;29507;51.284;5.758;2023-06-22T10:15:13;15.88;;;11.63;;
43857;SDS011;29507;51.284;5.758;2023-06-22T10:17:39;17.00;;;12.23;;
43857;SDS011;29507;51.284;5.758;2023-06-22T10:20:06;16.27;;;11.05;;
43857;SDS011;29507;51.284;5.758;2023-06-22T10:22:38;15.88;;;11.15;;
43857;SDS011;29507;51.284;5.758;2023-06-22T10:25:05;14.95;;;10.45;;
43857;SDS011;29507;51.284;5.758;2023-06-22T10:27:31;18.75;;;12.10;;
43857;SDS011;29507;51.284;5.758;2023-06-22T10:29:57;18.65;;;12.02;;
43857;SDS011;29507;51.284;5.758;2023-06-22T10:32:23;19.38;;;12.05;;
43857;SDS011;29507;51.284;5.758;2023-06-22T10:34:48;18.95;;;12.52;;
43857;SDS011;29507;51.284;5.758;2023-06-22T10:37:14;16.00;;;12.20;;
43857;SDS011;29507;51.284;5.758;2023-06-22T10:39:39;19.15;;;12.90;;
43857;SDS011;29507;51.284;5.758;2023-06-22T10:42:05;16.70;;;13.00;;
43857;SDS011;29507;51.284;5.758;2023-06-22T10:44:31;23.73;;;14.68;;
43857;SDS011;29507;51.284;5.758;2023-06-22T10:46:56;17.73;;;12.60;;
43857;SDS011;29507;51.284;5.758;2023-06-22T10:49:22;20.90;;;14.02;;
43857;SDS011;29507;51.284;5.758;2023-06-22T10:51:48;20.58;;;15.00;;
43857;SDS011;29507;51.284;5.758;2023-06-22T10:54:13;19.95;;;14.65;;
43857;SDS011;29507;51.284;5.758;2023-06-22T10:56:42;17.90;;;12.17;;
43857;SDS011;29507;51.284;5.758;2023-06-22T10:59:07;15.68;;;11.82;;
43857;SDS011;29507;51.284;5.758;2023-06-22T11:01:33;17.25;;;12.65;;
43857;SDS011;29507;51.284;5.758;2023-06-22T11:03:59;24.15;;;15.32;;
43857;SDS011;29507;51.284;5.758;2023-06-22T11:06:24;23.15;;;14.68;;
43857;SDS011;29507;51.284;5.758;2023-06-22T11:08:50;26.13;;;16.98;;
43857;SDS011;29507;51.284;5.758;2023-06-22T11:11:15;23.23;;;16.38;;
43857;SDS011;29507;51.284;5.758;2023-06-22T11:13:43;26.15;;;17.95;;
43857;SDS011;29507;51.284;5.758;2023-06-22T11:16:09;28.00;;;17.75;;
43857;SDS011;29507;51.284;5.758;2023-06-22T11:18:35;27.13;;;19.00;;
43857;SDS011;29507;51.284;5.758;2023-06-22T11:21:01;29.13;;;20.40;;
43857;SDS011;29507;51.284;5.758;2023-06-22T11:23:26;33.13;;;21.60;;
43857;SDS011;29507;51.284;5.758;2023-06-22T11:25:53;29.42;;;21.50;;
43857;SDS011;29507;51.284;5.758;2023-06-22T11:28:19;34.22;;;22.00;;
43857;SDS011;29507;51.284;5.758;2023-06-22T11:30:45;31.63;;;21.92;;
43857;SDS011;29507;51.284;5.758;2023-06-22T11:33:11;32.13;;;21.95;;
43857;SDS011;29507;51.284;5.758;2023-06-22T11:35:37;34.92;;;22.38;;
43857;SDS011;29507;51.284;5.758;2023-06-22T11:38:02;36.13;;;24.55;;
43857;SDS011;29507;51.284;5.758;2023-06-22T11:40:29;35.05;;;24.65;;
43857;SDS011;29507;51.284;5.758;2023-06-22T11:42:55;42.85;;;25.73;;
43857;SDS011;29507;51.284;5.758;2023-06-22T11:45:21;40.25;;;26.02;;
43857;SDS011;29507;51.284;5.758;2023-06-22T11:47:47;43.42;;;26.15;;
43857;SDS011;29507;51.284;5.758;2023-06-22T11:50:13;37.45;;;23.45;;
43857;SDS011;29507;51.284;5.758;2023-06-22T11:52:38;37.55;;;25.15;;
43857;SDS011;29507;51.284;5.758;2023-06-22T11:55:04;34.47;;;23.42;;
43857;SDS011;29507;51.284;5.758;2023-06-22T11:57:35;36.58;;;23.90;;
43857;SDS011;29507;51.284;5.758;2023-06-22T12:00:01;32.38;;;22.70;;
43857;SDS011;29507;51.284;5.758;2023-06-22T12:02:31;32.15;;;23.13;;
43857;SDS011;29507;51.284;5.758;2023-06-22T12:04:57;30.98;;;21.15;;
43857;SDS011;29507;51.284;5.758;2023-06-22T12:07:23;30.42;;;20.35;;
43857;SDS011;29507;51.284;5.758;2023-06-22T12:09:49;29.80;;;20.30;;
43857;SDS011;29507;51.284;5.758;2023-06-22T12:12:14;29.00;;;19.60;;
43857;SDS011;29507;51.284;5.758;2023-06-22T12:14:40;27.30;;;19.88;;
43857;SDS011;29507;51.284;5.758;2023-06-22T12:17:06;27.25;;;19.58;;
43857;SDS011;29507;51.284;5.758;2023-06-22T12:19:31;30.05;;;21.23;;
43857;SDS011;29507;51.284;5.758;2023-06-22T12:21:57;25.65;;;19.05;;
43857;SDS011;29507;51.284;5.758;2023-06-22T12:24:22;25.83;;;18.08;;
43857;SDS011;29507;51.284;5.758;2023-06-22T12:26:48;24.48;;;16.83;;
43857;SDS011;29507;51.284;5.758;2023-06-22T12:29:14;25.58;;;17.58;;
43857;SDS011;29507;51.284;5.758;2023-06-22T12:31:40;29.00;;;18.77;;
43857;SDS011;29507;51.284;5.758;2023-06-22T12:34:06;26.73;;;18.00;;
43857;SDS011;29507;51.284;5.758;2023-06-22T12:36:32;26.48;;;17.90;;
43857;SDS011;29507;51.284;5.758;2023-06-22T12:38:57;25.00;;;16.38;;
43857;SDS011;29507;51.284;5.758;2023-06-22T12:41:23;18.83;;;13.23;;
43857;SDS011;29507;51.284;5.758;2023-06-22T12:43:49;18.92;;;13.68;;
43857;SDS011;29507;51.284;5.758;2023-06-22T12:46:14;19.88;;;14.20;;
43857;SDS011;29507;51.284;5.758;2023-06-22T12:48:40;20.17;;;14.85;;
43857;SDS011;29507;51.284;5.758;2023-06-22T12:51:08;18.70;;;13.43;;
43857;SDS011;29507;51.284;5.758;2023-06-22T12:53:34;24.73;;;16.35;;
43857;SDS011;29507;51.284;5.758;2023-06-22T12:56:00;21.48;;;15.65;;
43857;SDS011;29507;51.284;5.758;2023-06-22T12:58:26;23.98;;;16.42;;
43857;SDS011;29507;51.284;5.758;2023-06-22T13:00:51;21.83;;;16.63;;
43857;SDS011;29507;51.284;5.758;2023-06-22T13:03:17;26.73;;;18.05;;
43857;SDS011;29507;51.284;5.758;2023-06-22T13:05:42;24.58;;;18.20;;
43857;SDS011;29507;51.284;5.758;2023-06-22T13:08:08;28.40;;;18.33;;
43857;SDS011;29507;51.284;5.758;2023-06-22T13:10:34;30.95;;;20.30;;
43857;SDS011;29507;51.284;5.758;2023-06-22T13:12:59;29.42;;;20.48;;
43857;SDS011;29507;51.284;5.758;2023-06-22T13:15:28;25.75;;;17.58;;
43857;SDS011;29507;51.284;5.758;2023-06-22T13:17:55;25.20;;;17.95;;
43857;SDS011;29507;51.284;5.758;2023-06-22T13:20:20;27.50;;;18.77;;
43857;SDS011;29507;51.284;5.758;2023-06-22T13:22:46;30.02;;;18.30;;
43857;SDS011;29507;51.284;5.758;2023-06-22T13:25:12;24.70;;;18.45;;
43857;SDS011;29507;51.284;5.758;2023-06-22T13:27:41;24.80;;;17.50;;
43857;SDS011;29507;51.284;5.758;2023-06-22T13:30:07;24.88;;;17.38;;
43857;SDS011;29507;51.284;5.758;2023-06-22T13:32:33;26.33;;;17.38;;
43857;SDS011;29507;51.284;5.758;2023-06-22T13:34:59;25.77;;;16.52;;
43857;SDS011;29507;51.284;5.758;2023-06-22T13:37:25;27.60;;;17.55;;
43857;SDS011;29507;51.284;5.758;2023-06-22T13:39:51;22.67;;;17.02;;
43857;SDS011;29507;51.284;5.758;2023-06-22T13:42:17;27.83;;;18.15;;
43857;SDS011;29507;51.284;5.758;2023-06-22T13:44:42;26.92;;;16.33;;
43857;SDS011;29507;51.284;5.758;2023-06-22T13:47:08;22.02;;;16.70;;
43857;SDS011;29507;51.284;5.758;2023-06-22T13:49:34;26.17;;;17.77;;
43857;SDS011;29507;51.284;5.758;2023-06-22T13:52:00;25.17;;;17.23;;
43857;SDS011;29507;51.284;5.758;2023-06-22T13:54:25;28.85;;;19.35;;
43857;SDS011;29507;51.284;5.758;2023-06-22T13:56:51;24.65;;;17.60;;
43857;SDS011;29507;51.284;5.758;2023-06-22T13:59:17;31.77;;;20.00;;
43857;SDS011;29507;51.284;5.758;2023-06-22T14:01:43;31.42;;;20.70;;
43857;SDS011;29507;51.284;5.758;2023-06-22T14:04:09;36.30;;;22.27;;
43857;SDS011;29507;51.284;5.758;2023-06-22T14:06:35;37.15;;;22.58;;
43857;SDS011;29507;51.284;5.758;2023-06-22T14:09:00;31.75;;;21.58;;
43857;SDS011;29507;51.284;5.758;2023-06-22T14:11:26;33.67;;;22.30;;
43857;SDS011;29507;51.284;5.758;2023-06-22T14:13:52;31.73;;;23.17;;
43857;SDS011;29507;51.284;5.758;2023-06-22T14:16:17;33.15;;;21.58;;
43857;SDS011;29507;51.284;5.758;2023-06-22T14:18:44;34.50;;;23.45;;
43857;SDS011;29507;51.284;5.758;2023-06-22T14:21:10;37.88;;;25.33;;
43857;SDS011;29507;51.284;5.758;2023-06-22T14:23:36;35.25;;;22.83;;
43857;SDS011;29507;51.284;5.758;2023-06-22T14:26:02;35.13;;;23.90;;
43857;SDS011;29507;51.284;5.758;2023-06-22T14:28:28;33.95;;;23.50;;
43857;SDS011;29507;51.284;5.758;2023-06-22T14:30:54;37.47;;;23.70;;
43857;SDS011;29507;51.284;5.758;2023-06-22T14:33:21;40.20;;;25.45;;
43857;SDS011;29507;51.284;5.758;2023-06-22T14:35:47;33.92;;;23.67;;